sensor_id;sensor_type;location;lat;lon;timestamp;temperature;humidity
40454;DHT22;26160;51.858;4.398;2023-08-06T00:00:29;15.70;99.90
40454;DHT22;26160;51.858;4.398;2023-08-06T00:02:55;15.70;99.90
40454;DHT22;26160;51.858;4.398;2023-08-06T00:05:21;15.70;99.90
40454;DHT22;26160;51.858;4.398;2023-08-06T00:07:48;15.70;99.90
40454;DHT22;26160;51.858;4.398;2023-08-06T00:10:14;15.70;99.90
40454;DHT22;26160;51.858;4.398;2023-08-06T00:12:41;15.70;99.90
40454;DHT22;26160;51.858;4.398;2023-08-06T00:15:07;15.70;99.90
40454;DHT22;26160;51.858;4.398;2023-08-06T00:17:34;15.70;99.90
40454;DHT22;26160;51.858;4.398;2023-08-06T00:20:01;15.70;99.90
40454;DHT22;26160;51.858;4.398;2023-08-06T00:22:35;15.70;99.90
40454;DHT22;26160;51.858;4.398;2023-08-06T00:25:02;15.60;99.90
40454;DHT22;26160;51.858;4.398;2023-08-06T00:27:28;15.60;99.90
40454;DHT22;26160;51.858;4.398;2023-08-06T00:29:54;15.60;99.90
40454;DHT22;26160;51.858;4.398;2023-08-06T00:32:21;15.60;99.90
40454;DHT22;26160;51.858;4.398;2023-08-06T00:34:47;15.60;99.90
40454;DHT22;26160;51.858;4.398;2023-08-06T00:37:16;15.60;99.90
40454;DHT22;26160;51.858;4.398;2023-08-06T00:39:43;15.60;99.90
40454;DHT22;26160;51.858;4.398;2023-08-06T00:42:10;15.60;99.90
40454;DHT22;26160;51.858;4.398;2023-08-06T00:44:37;15.60;99.90
40454;DHT22;26160;51.858;4.398;2023-08-06T00:47:04;15.60;99.90
40454;DHT22;26160;51.858;4.398;2023-08-06T00:49:30;15.60;99.90
40454;DHT22;26160;51.858;4.398;2023-08-06T00:51:56;15.60;99.90
40454;DHT22;26160;51.858;4.398;2023-08-06T00:54:23;15.60;99.90
40454;DHT22;26160;51.858;4.398;2023-08-06T00:56:50;15.60;99.90
40454;DHT22;26160;51.858;4.398;2023-08-06T00:59:17;15.60;99.90
40454;DHT22;26160;51.858;4.398;2023-08-06T01:04:13;15.60;99.90
40454;DHT22;26160;51.858;4.398;2023-08-06T01:06:47;15.60;99.90
40454;DHT22;26160;51.858;4.398;2023-08-06T01:09:31;15.60;99.90
40454;DHT22;26160;51.858;4.398;2023-08-06T01:15:11;15.60;99.90
40454;DHT22;26160;51.858;4.398;2023-08-06T01:17:40;15.60;99.90
40454;DHT22;26160;51.858;4.398;2023-08-06T01:20:07;15.60;99.90
40454;DHT22;26160;51.858;4.398;2023-08-06T01:22:33;15.60;99.90
40454;DHT22;26160;51.858;4.398;2023-08-06T01:24:59;15.60;99.90
40454;DHT22;26160;51.858;4.398;2023-08-06T01:27:44;15.60;99.90
40454;DHT22;26160;51.858;4.398;2023-08-06T01:30:15;15.60;99.90
40454;DHT22;26160;51.858;4.398;2023-08-06T01:32:53;15.60;99.90
40454;DHT22;26160;51.858;4.398;2023-08-06T01:35:20;15.70;99.90
40454;DHT22;26160;51.858;4.398;2023-08-06T01:37:47;15.70;99.90
40454;DHT22;26160;51.858;4.398;2023-08-06T01:40:14;15.70;99.90
40454;DHT22;26160;51.858;4.398;2023-08-06T01:42:40;15.70;99.90
40454;DHT22;26160;51.858;4.398;2023-08-06T01:45:08;15.70;99.90
40454;DHT22;26160;51.858;4.398;2023-08-06T01:47:34;15.70;99.90
40454;DHT22;26160;51.858;4.398;2023-08-06T01:50:01;15.70;99.90
40454;DHT22;26160;51.858;4.398;2023-08-06T01:52:27;15.70;99.90
40454;DHT22;26160;51.858;4.398;2023-08-06T01:54:54;15.70;99.90
40454;DHT22;26160;51.858;4.398;2023-08-06T01:57:20;15.80;99.90
40454;DHT22;26160;51.858;4.398;2023-08-06T01:59:47;15.70;99.90
40454;DHT22;26160;51.858;4.398;2023-08-06T02:02:13;15.80;99.90
40454;DHT22;26160;51.858;4.398;2023-08-06T02:04:39;15.80;99.90
40454;DHT22;26160;51.858;4.398;2023-08-06T02:07:05;15.80;99.90
40454;DHT22;26160;51.858;4.398;2023-08-06T02:09:31;15.80;99.90
40454;DHT22;26160;51.858;4.398;2023-08-06T02:11:58;15.80;99.90
40454;DHT22;26160;51.858;4.398;2023-08-06T02:14:24;15.80;99.90
40454;DHT22;26160;51.858;4.398;2023-08-06T02:16:50;15.80;99.90
40454;DHT22;26160;51.858;4.398;2023-08-06T02:19:16;15.80;99.90
40454;DHT22;26160;51.858;4.398;2023-08-06T02:21:42;15.80;99.90
40454;DHT22;26160;51.858;4.398;2023-08-06T02:24:08;15.80;99.90
40454;DHT22;26160;51.858;4.398;2023-08-06T02:26:34;15.80;99.90
40454;DHT22;26160;51.858;4.398;2023-08-06T02:29:00;15.80;99.90
40454;DHT22;26160;51.858;4.398;2023-08-06T02:31:27;15.80;99.90
40454;DHT22;26160;51.858;4.398;2023-08-06T02:33:53;15.80;99.90
40454;DHT22;26160;51.858;4.398;2023-08-06T02:36:19;15.80;99.90
40454;DHT22;26160;51.858;4.398;2023-08-06T02:38:45;15.80;99.90
40454;DHT22;26160;51.858;4.398;2023-08-06T02:41:12;15.80;99.90
40454;DHT22;26160;51.858;4.398;2023-08-06T02:43:38;15.70;99.90
40454;DHT22;26160;51.858;4.398;2023-08-06T02:46:04;15.70;99.90
40454;DHT22;26160;51.858;4.398;2023-08-06T02:48:30;15.70;99.90
40454;DHT22;26160;51.858;4.398;2023-08-06T02:50:59;15.70;99.90
40454;DHT22;26160;51.858;4.398;2023-08-06T02:53:26;15.70;99.90
40454;DHT22;26160;51.858;4.398;2023-08-06T02:55:52;15.70;99.90
40454;DHT22;26160;51.858;4.398;2023-08-06T02:58:18;15.70;99.90
40454;DHT22;26160;51.858;4.398;2023-08-06T03:01:05;15.70;99.90
40454;DHT22;26160;51.858;4.398;2023-08-06T03:03:31;15.70;99.90
40454;DHT22;26160;51.858;4.398;2023-08-06T03:06:01;15.60;99.90
40454;DHT22;26160;51.858;4.398;2023-08-06T03:08:28;15.60;99.90
40454;DHT22;26160;51.858;4.398;2023-08-06T03:10:54;15.60;99.90
40454;DHT22;26160;51.858;4.398;2023-08-06T03:13:20;15.60;99.90
40454;DHT22;26160;51.858;4.398;2023-08-06T03:15:54;15.50;99.90
40454;DHT22;26160;51.858;4.398;2023-08-06T03:18:20;15.50;99.90
40454;DHT22;26160;51.858;4.398;2023-08-06T03:20:47;15.40;99.90
40454;DHT22;26160;51.858;4.398;2023-08-06T03:23:13;15.40;99.90
40454;DHT22;26160;51.858;4.398;2023-08-06T03:25:40;15.40;99.90
40454;DHT22;26160;51.858;4.398;2023-08-06T03:28:06;15.30;99.90
40454;DHT22;26160;51.858;4.398;2023-08-06T03:30:32;15.30;99.90
40454;DHT22;26160;51.858;4.398;2023-08-06T03:32:58;15.30;99.90
40454;DHT22;26160;51.858;4.398;2023-08-06T03:35:24;15.30;99.90
40454;DHT22;26160;51.858;4.398;2023-08-06T03:37:50;15.30;99.90
40454;DHT22;26160;51.858;4.398;2023-08-06T03:40:16;15.30;99.90
40454;DHT22;26160;51.858;4.398;2023-08-06T03:42:42;15.30;99.90
40454;DHT22;26160;51.858;4.398;2023-08-06T03:45:08;15.30;99.90
40454;DHT22;26160;51.858;4.398;2023-08-06T03:47:35;15.30;99.90
40454;DHT22;26160;51.858;4.398;2023-08-06T03:50:01;15.30;99.90
40454;DHT22;26160;51.858;4.398;2023-08-06T03:52:27;15.30;99.90
40454;DHT22;26160;51.858;4.398;2023-08-06T03:54:53;15.30;99.90
40454;DHT22;26160;51.858;4.398;2023-08-06T03:57:19;15.00;99.90
40454;DHT22;26160;51.858;4.398;2023-08-06T03:59:45;14.90;99.90
40454;DHT22;26160;51.858;4.398;2023-08-06T04:02:11;14.80;99.90
40454;DHT22;26160;51.858;4.398;2023-08-06T04:04:37;14.60;99.90
40454;DHT22;26160;51.858;4.398;2023-08-06T04:07:12;14.40;99.90
40454;DHT22;26160;51.858;4.398;2023-08-06T04:09:57;14.30;99.90
40454;DHT22;26160;51.858;4.398;2023-08-06T04:12:24;14.30;99.90
40454;DHT22;26160;51.858;4.398;2023-08-06T04:14:51;14.30;99.90
40454;DHT22;26160;51.858;4.398;2023-08-06T04:17:18;14.30;99.90
40454;DHT22;26160;51.858;4.398;2023-08-06T04:19:52;14.30;99.90
40454;DHT22;26160;51.858;4.398;2023-08-06T04:22:19;14.40;99.90
40454;DHT22;26160;51.858;4.398;2023-08-06T04:24:45;14.40;99.90
40454;DHT22;26160;51.858;4.398;2023-08-06T04:27:12;14.40;99.90
40454;DHT22;26160;51.858;4.398;2023-08-06T04:29:38;14.30;99.90
40454;DHT22;26160;51.858;4.398;2023-08-06T04:32:09;14.30;99.90
40454;DHT22;26160;51.858;4.398;2023-08-06T04:34:36;14.30;99.90
40454;DHT22;26160;51.858;4.398;2023-08-06T04:37:04;14.30;99.90
40454;DHT22;26160;51.858;4.398;2023-08-06T04:39:30;14.40;99.90
40454;DHT22;26160;51.858;4.398;2023-08-06T04:41:57;14.40;99.90
40454;DHT22;26160;51.858;4.398;2023-08-06T04:44:26;14.40;99.90
40454;DHT22;26160;51.858;4.398;2023-08-06T04:46:53;14.40;99.90
40454;DHT22;26160;51.858;4.398;2023-08-06T04:49:23;14.40;99.90
40454;DHT22;26160;51.858;4.398;2023-08-06T04:51:49;14.40;99.90
40454;DHT22;26160;51.858;4.398;2023-08-06T04:54:15;14.40;99.90
40454;DHT22;26160;51.858;4.398;2023-08-06T04:56:41;14.40;99.90
40454;DHT22;26160;51.858;4.398;2023-08-06T04:59:07;14.40;99.90
40454;DHT22;26160;51.858;4.398;2023-08-06T05:01:33;14.50;99.90
40454;DHT22;26160;51.858;4.398;2023-08-06T05:03:59;14.50;99.90
40454;DHT22;26160;51.858;4.398;2023-08-06T05:06:25;14.60;99.90
40454;DHT22;26160;51.858;4.398;2023-08-06T05:08:52;14.60;99.90
40454;DHT22;26160;51.858;4.398;2023-08-06T05:11:18;14.60;99.90
40454;DHT22;26160;51.858;4.398;2023-08-06T05:13:44;14.60;99.90
40454;DHT22;26160;51.858;4.398;2023-08-06T05:16:10;14.60;99.90
40454;DHT22;26160;51.858;4.398;2023-08-06T05:18:36;14.60;99.90
40454;DHT22;26160;51.858;4.398;2023-08-06T05:21:03;14.60;99.90
40454;DHT22;26160;51.858;4.398;2023-08-06T05:23:29;14.60;99.90
40454;DHT22;26160;51.858;4.398;2023-08-06T05:25:55;14.60;99.90
40454;DHT22;26160;51.858;4.398;2023-08-06T05:28:21;14.60;99.90
40454;DHT22;26160;51.858;4.398;2023-08-06T05:30:47;14.60;99.90
40454;DHT22;26160;51.858;4.398;2023-08-06T05:33:14;14.60;99.90
40454;DHT22;26160;51.858;4.398;2023-08-06T05:35:41;14.60;99.90
40454;DHT22;26160;51.858;4.398;2023-08-06T05:38:08;14.60;99.90
40454;DHT22;26160;51.858;4.398;2023-08-06T05:40:34;14.60;99.90
40454;DHT22;26160;51.858;4.398;2023-08-06T05:43:00;14.60;99.90
40454;DHT22;26160;51.858;4.398;2023-08-06T05:45:26;14.60;99.90
40454;DHT22;26160;51.858;4.398;2023-08-06T05:47:52;14.60;99.90
40454;DHT22;26160;51.858;4.398;2023-08-06T05:50:20;14.50;99.90
40454;DHT22;26160;51.858;4.398;2023-08-06T05:52:46;14.50;99.90
40454;DHT22;26160;51.858;4.398;2023-08-06T05:55:12;14.50;99.90
40454;DHT22;26160;51.858;4.398;2023-08-06T05:57:38;14.40;99.90
40454;DHT22;26160;51.858;4.398;2023-08-06T06:00:04;14.40;99.90
40454;DHT22;26160;51.858;4.398;2023-08-06T06:02:32;14.40;99.90
40454;DHT22;26160;51.858;4.398;2023-08-06T06:04:58;14.40;99.90
40454;DHT22;26160;51.858;4.398;2023-08-06T06:07:24;14.40;99.90
40454;DHT22;26160;51.858;4.398;2023-08-06T06:09:50;14.40;99.90
40454;DHT22;26160;51.858;4.398;2023-08-06T06:12:16;14.40;99.90
40454;DHT22;26160;51.858;4.398;2023-08-06T06:14:42;14.40;99.90
40454;DHT22;26160;51.858;4.398;2023-08-06T06:17:09;14.40;99.90
40454;DHT22;26160;51.858;4.398;2023-08-06T06:19:35;14.40;99.90
40454;DHT22;26160;51.858;4.398;2023-08-06T06:22:01;14.40;99.90
40454;DHT22;26160;51.858;4.398;2023-08-06T06:24:27;14.40;99.90
40454;DHT22;26160;51.858;4.398;2023-08-06T06:26:53;14.40;99.90
40454;DHT22;26160;51.858;4.398;2023-08-06T06:29:19;14.30;99.90
40454;DHT22;26160;51.858;4.398;2023-08-06T06:31:45;14.40;99.90
40454;DHT22;26160;51.858;4.398;2023-08-06T06:34:11;14.40;99.90
40454;DHT22;26160;51.858;4.398;2023-08-06T06:36:37;14.30;99.90
40454;DHT22;26160;51.858;4.398;2023-08-06T06:39:03;14.40;99.90
40454;DHT22;26160;51.858;4.398;2023-08-06T06:41:29;14.40;99.90
40454;DHT22;26160;51.858;4.398;2023-08-06T06:43:57;14.40;99.90
40454;DHT22;26160;51.858;4.398;2023-08-06T06:46:23;14.40;99.90
40454;DHT22;26160;51.858;4.398;2023-08-06T06:48:49;14.40;99.90
40454;DHT22;26160;51.858;4.398;2023-08-06T06:51:16;14.50;99.90
40454;DHT22;26160;51.858;4.398;2023-08-06T06:53:42;14.50;99.90
40454;DHT22;26160;51.858;4.398;2023-08-06T06:56:08;14.50;99.90
40454;DHT22;26160;51.858;4.398;2023-08-06T06:58:34;14.50;99.90
40454;DHT22;26160;51.858;4.398;2023-08-06T07:01:00;14.50;99.90
40454;DHT22;26160;51.858;4.398;2023-08-06T07:03:26;14.50;99.90
40454;DHT22;26160;51.858;4.398;2023-08-06T07:05:57;14.60;99.90
40454;DHT22;26160;51.858;4.398;2023-08-06T07:08:26;14.60;99.90
40454;DHT22;26160;51.858;4.398;2023-08-06T07:11:03;14.70;99.90
40454;DHT22;26160;51.858;4.398;2023-08-06T07:13:30;14.70;99.90
40454;DHT22;26160;51.858;4.398;2023-08-06T07:15:56;14.80;99.90
40454;DHT22;26160;51.858;4.398;2023-08-06T07:18:23;14.90;99.90
40454;DHT22;26160;51.858;4.398;2023-08-06T07:20:50;15.00;99.90
40454;DHT22;26160;51.858;4.398;2023-08-06T07:23:16;15.00;99.90
40454;DHT22;26160;51.858;4.398;2023-08-06T07:25:42;15.00;99.90
40454;DHT22;26160;51.858;4.398;2023-08-06T07:28:10;15.00;99.90
40454;DHT22;26160;51.858;4.398;2023-08-06T07:30:39;15.10;99.90
40454;DHT22;26160;51.858;4.398;2023-08-06T07:33:05;15.20;99.90
40454;DHT22;26160;51.858;4.398;2023-08-06T07:35:31;15.20;99.90
40454;DHT22;26160;51.858;4.398;2023-08-06T07:37:58;15.20;99.90
40454;DHT22;26160;51.858;4.398;2023-08-06T07:40:24;15.20;99.90
40454;DHT22;26160;51.858;4.398;2023-08-06T07:42:50;15.30;99.90
40454;DHT22;26160;51.858;4.398;2023-08-06T07:45:16;15.40;99.90
40454;DHT22;26160;51.858;4.398;2023-08-06T07:47:42;15.50;99.90
40454;DHT22;26160;51.858;4.398;2023-08-06T07:50:09;15.50;99.90
40454;DHT22;26160;51.858;4.398;2023-08-06T07:52:35;15.60;99.90
40454;DHT22;26160;51.858;4.398;2023-08-06T07:55:02;15.70;99.90
40454;DHT22;26160;51.858;4.398;2023-08-06T07:57:33;15.80;99.90
40454;DHT22;26160;51.858;4.398;2023-08-06T08:00:01;15.80;99.90
40454;DHT22;26160;51.858;4.398;2023-08-06T08:02:27;15.90;99.90
40454;DHT22;26160;51.858;4.398;2023-08-06T08:04:53;15.90;99.90
40454;DHT22;26160;51.858;4.398;2023-08-06T08:07:20;16.00;99.90
40454;DHT22;26160;51.858;4.398;2023-08-06T08:09:46;16.10;99.90
40454;DHT22;26160;51.858;4.398;2023-08-06T08:12:14;16.20;99.90
40454;DHT22;26160;51.858;4.398;2023-08-06T08:14:40;16.20;99.90
40454;DHT22;26160;51.858;4.398;2023-08-06T08:17:06;16.30;99.90
40454;DHT22;26160;51.858;4.398;2023-08-06T08:19:32;16.40;99.90
40454;DHT22;26160;51.858;4.398;2023-08-06T08:21:59;16.50;99.90
40454;DHT22;26160;51.858;4.398;2023-08-06T08:24:25;16.60;99.90
40454;DHT22;26160;51.858;4.398;2023-08-06T08:26:52;16.60;99.90
40454;DHT22;26160;51.858;4.398;2023-08-06T08:29:19;16.60;99.90
40454;DHT22;26160;51.858;4.398;2023-08-06T08:31:45;16.60;99.90
40454;DHT22;26160;51.858;4.398;2023-08-06T08:34:14;16.70;99.90
40454;DHT22;26160;51.858;4.398;2023-08-06T08:36:40;16.80;99.90
40454;DHT22;26160;51.858;4.398;2023-08-06T08:39:06;16.90;99.90
40454;DHT22;26160;51.858;4.398;2023-08-06T08:41:33;16.90;99.90
40454;DHT22;26160;51.858;4.398;2023-08-06T08:44:01;16.90;99.90
40454;DHT22;26160;51.858;4.398;2023-08-06T08:46:29;16.90;99.90
40454;DHT22;26160;51.858;4.398;2023-08-06T08:48:57;17.00;99.90
40454;DHT22;26160;51.858;4.398;2023-08-06T08:51:27;17.10;99.90
40454;DHT22;26160;51.858;4.398;2023-08-06T08:53:54;17.20;99.90
40454;DHT22;26160;51.858;4.398;2023-08-06T08:56:24;17.20;99.90
40454;DHT22;26160;51.858;4.398;2023-08-06T08:58:50;17.20;99.90
40454;DHT22;26160;51.858;4.398;2023-08-06T09:01:19;17.10;99.90
40454;DHT22;26160;51.858;4.398;2023-08-06T09:03:46;16.90;99.90
40454;DHT22;26160;51.858;4.398;2023-08-06T09:06:13;16.80;99.90
40454;DHT22;26160;51.858;4.398;2023-08-06T09:08:47;16.70;99.90
40454;DHT22;26160;51.858;4.398;2023-08-06T09:11:16;16.70;99.90
40454;DHT22;26160;51.858;4.398;2023-08-06T09:13:42;16.90;99.90
40454;DHT22;26160;51.858;4.398;2023-08-06T09:16:09;16.90;99.90
40454;DHT22;26160;51.858;4.398;2023-08-06T09:18:38;17.00;99.90
40454;DHT22;26160;51.858;4.398;2023-08-06T09:21:05;17.00;99.90
40454;DHT22;26160;51.858;4.398;2023-08-06T09:23:31;17.00;99.90
40454;DHT22;26160;51.858;4.398;2023-08-06T09:25:59;17.20;99.90
40454;DHT22;26160;51.858;4.398;2023-08-06T09:28:37;17.30;99.90
40454;DHT22;26160;51.858;4.398;2023-08-06T09:31:08;17.40;99.90
40454;DHT22;26160;51.858;4.398;2023-08-06T09:33:37;17.50;99.90
40454;DHT22;26160;51.858;4.398;2023-08-06T09:36:13;17.50;99.90
40454;DHT22;26160;51.858;4.398;2023-08-06T09:38:40;17.50;99.90
40454;DHT22;26160;51.858;4.398;2023-08-06T09:41:07;17.70;99.90
40454;DHT22;26160;51.858;4.398;2023-08-06T09:43:40;17.90;99.90
40454;DHT22;26160;51.858;4.398;2023-08-06T09:46:13;17.80;99.90
40454;DHT22;26160;51.858;4.398;2023-08-06T09:48:40;17.80;99.90
40454;DHT22;26160;51.858;4.398;2023-08-06T09:51:08;17.80;99.90
40454;DHT22;26160;51.858;4.398;2023-08-06T09:53:36;18.10;99.90
40454;DHT22;26160;51.858;4.398;2023-08-06T09:56:03;18.30;99.90
40454;DHT22;26160;51.858;4.398;2023-08-06T09:58:31;18.50;99.90
40454;DHT22;26160;51.858;4.398;2023-08-06T10:00:59;18.80;99.90
40454;DHT22;26160;51.858;4.398;2023-08-06T10:03:25;19.10;99.90
40454;DHT22;26160;51.858;4.398;2023-08-06T10:05:52;19.30;99.50
40454;DHT22;26160;51.858;4.398;2023-08-06T10:08:18;19.00;99.90
40454;DHT22;26160;51.858;4.398;2023-08-06T10:10:45;18.60;99.90
40454;DHT22;26160;51.858;4.398;2023-08-06T10:13:13;18.30;99.90
40454;DHT22;26160;51.858;4.398;2023-08-06T10:15:39;18.30;99.90
40454;DHT22;26160;51.858;4.398;2023-08-06T10:18:06;18.20;99.90
40454;DHT22;26160;51.858;4.398;2023-08-06T10:20:36;18.20;99.90
40454;DHT22;26160;51.858;4.398;2023-08-06T10:23:03;18.20;99.90
40454;DHT22;26160;51.858;4.398;2023-08-06T10:25:34;18.10;99.90
40454;DHT22;26160;51.858;4.398;2023-08-06T10:28:06;18.00;99.90
40454;DHT22;26160;51.858;4.398;2023-08-06T10:30:33;17.90;99.90
40454;DHT22;26160;51.858;4.398;2023-08-06T10:33:03;17.80;99.90
40454;DHT22;26160;51.858;4.398;2023-08-06T10:35:42;17.60;99.90
40454;DHT22;26160;51.858;4.398;2023-08-06T10:38:19;17.50;99.90
40454;DHT22;26160;51.858;4.398;2023-08-06T10:40:52;17.50;99.90
40454;DHT22;26160;51.858;4.398;2023-08-06T10:45:56;17.50;99.90
40454;DHT22;26160;51.858;4.398;2023-08-06T10:48:42;17.40;99.90
40454;DHT22;26160;51.858;4.398;2023-08-06T10:51:12;17.40;99.90
40454;DHT22;26160;51.858;4.398;2023-08-06T10:53:47;17.50;99.90
40454;DHT22;26160;51.858;4.398;2023-08-06T10:56:18;17.70;99.90
40454;DHT22;26160;51.858;4.398;2023-08-06T10:58:45;17.80;99.90
40454;DHT22;26160;51.858;4.398;2023-08-06T11:01:11;17.80;99.90
40454;DHT22;26160;51.858;4.398;2023-08-06T11:03:38;17.70;99.90
40454;DHT22;26160;51.858;4.398;2023-08-06T11:06:07;17.70;99.90
40454;DHT22;26160;51.858;4.398;2023-08-06T11:08:35;17.70;99.90
40454;DHT22;26160;51.858;4.398;2023-08-06T11:11:11;17.70;99.90
40454;DHT22;26160;51.858;4.398;2023-08-06T11:13:43;17.80;99.90
40454;DHT22;26160;51.858;4.398;2023-08-06T11:16:10;18.00;99.90
40454;DHT22;26160;51.858;4.398;2023-08-06T11:18:36;18.30;99.90
40454;DHT22;26160;51.858;4.398;2023-08-06T11:21:02;18.30;99.90
40454;DHT22;26160;51.858;4.398;2023-08-06T11:23:29;18.40;99.90
40454;DHT22;26160;51.858;4.398;2023-08-06T11:25:56;18.60;99.90
40454;DHT22;26160;51.858;4.398;2023-08-06T11:28:23;18.60;99.90
40454;DHT22;26160;51.858;4.398;2023-08-06T11:30:50;18.70;99.90
40454;DHT22;26160;51.858;4.398;2023-08-06T11:33:22;18.90;99.90
40454;DHT22;26160;51.858;4.398;2023-08-06T11:35:52;18.70;99.90
40454;DHT22;26160;51.858;4.398;2023-08-06T11:38:18;18.50;99.90
40454;DHT22;26160;51.858;4.398;2023-08-06T11:40:45;18.30;99.90
40454;DHT22;26160;51.858;4.398;2023-08-06T11:43:14;18.40;99.90
40454;DHT22;26160;51.858;4.398;2023-08-06T11:45:40;18.50;99.90
40454;DHT22;26160;51.858;4.398;2023-08-06T11:48:07;18.60;99.90
40454;DHT22;26160;51.858;4.398;2023-08-06T11:50:37;18.60;99.90
40454;DHT22;26160;51.858;4.398;2023-08-06T11:53:06;18.70;99.90
40454;DHT22;26160;51.858;4.398;2023-08-06T11:55:33;18.30;99.90
40454;DHT22;26160;51.858;4.398;2023-08-06T11:58:03;18.30;99.90
40454;DHT22;26160;51.858;4.398;2023-08-06T12:00:30;18.50;99.90
40454;DHT22;26160;51.858;4.398;2023-08-06T12:03:04;18.60;99.90
40454;DHT22;26160;51.858;4.398;2023-08-06T12:05:31;18.60;99.90
40454;DHT22;26160;51.858;4.398;2023-08-06T12:08:00;18.60;99.90
40454;DHT22;26160;51.858;4.398;2023-08-06T12:10:28;18.60;99.90
40454;DHT22;26160;51.858;4.398;2023-08-06T12:12:55;18.40;99.90
40454;DHT22;26160;51.858;4.398;2023-08-06T12:15:22;18.30;99.90
40454;DHT22;26160;51.858;4.398;2023-08-06T12:17:48;18.40;99.90
40454;DHT22;26160;51.858;4.398;2023-08-06T12:20:15;18.50;99.90
40454;DHT22;26160;51.858;4.398;2023-08-06T12:22:41;18.50;99.90
40454;DHT22;26160;51.858;4.398;2023-08-06T12:25:09;18.50;99.90
40454;DHT22;26160;51.858;4.398;2023-08-06T12:27:38;18.40;99.90
40454;DHT22;26160;51.858;4.398;2023-08-06T12:30:06;18.40;99.90
40454;DHT22;26160;51.858;4.398;2023-08-06T12:32:33;18.40;99.90
40454;DHT22;26160;51.858;4.398;2023-08-06T12:34:59;18.20;99.90
40454;DHT22;26160;51.858;4.398;2023-08-06T12:37:27;18.20;99.90
40454;DHT22;26160;51.858;4.398;2023-08-06T12:39:54;18.20;99.90
40454;DHT22;26160;51.858;4.398;2023-08-06T12:42:20;18.30;99.90
40454;DHT22;26160;51.858;4.398;2023-08-06T12:44:48;18.40;99.90
40454;DHT22;26160;51.858;4.398;2023-08-06T12:47:15;18.40;99.90
40454;DHT22;26160;51.858;4.398;2023-08-06T12:49:41;18.40;99.90
40454;DHT22;26160;51.858;4.398;2023-08-06T12:52:07;18.50;99.90
40454;DHT22;26160;51.858;4.398;2023-08-06T12:54:35;18.50;99.90
40454;DHT22;26160;51.858;4.398;2023-08-06T12:57:03;18.50;99.90
40454;DHT22;26160;51.858;4.398;2023-08-06T12:59:29;18.50;99.90
40454;DHT22;26160;51.858;4.398;2023-08-06T13:01:55;18.40;99.90
40454;DHT22;26160;51.858;4.398;2023-08-06T13:04:21;18.40;99.90
40454;DHT22;26160;51.858;4.398;2023-08-06T13:06:47;18.50;99.90
40454;DHT22;26160;51.858;4.398;2023-08-06T13:09:14;18.60;99.90
40454;DHT22;26160;51.858;4.398;2023-08-06T13:11:41;18.70;99.90
40454;DHT22;26160;51.858;4.398;2023-08-06T13:14:12;18.60;99.90
40454;DHT22;26160;51.858;4.398;2023-08-06T13:16:40;18.50;99.90
40454;DHT22;26160;51.858;4.398;2023-08-06T13:19:07;18.30;99.90
40454;DHT22;26160;51.858;4.398;2023-08-06T13:21:35;18.20;99.90
40454;DHT22;26160;51.858;4.398;2023-08-06T13:24:02;18.00;99.90
40454;DHT22;26160;51.858;4.398;2023-08-06T13:26:30;17.70;99.90
40454;DHT22;26160;51.858;4.398;2023-08-06T13:28:59;17.40;99.90
40454;DHT22;26160;51.858;4.398;2023-08-06T13:31:26;17.20;99.90
40454;DHT22;26160;51.858;4.398;2023-08-06T13:33:54;17.00;99.90
40454;DHT22;26160;51.858;4.398;2023-08-06T13:36:22;16.80;99.90
40454;DHT22;26160;51.858;4.398;2023-08-06T13:38:48;16.80;99.90
40454;DHT22;26160;51.858;4.398;2023-08-06T13:41:15;16.70;99.90
40454;DHT22;26160;51.858;4.398;2023-08-06T13:43:42;16.70;99.90
40454;DHT22;26160;51.858;4.398;2023-08-06T13:46:08;16.60;99.90
40454;DHT22;26160;51.858;4.398;2023-08-06T13:48:35;16.50;99.90
40454;DHT22;26160;51.858;4.398;2023-08-06T13:51:01;16.20;99.90
40454;DHT22;26160;51.858;4.398;2023-08-06T13:53:27;15.90;99.90
40454;DHT22;26160;51.858;4.398;2023-08-06T13:55:56;15.70;99.90
40454;DHT22;26160;51.858;4.398;2023-08-06T13:58:25;15.60;99.90
40454;DHT22;26160;51.858;4.398;2023-08-06T14:00:53;15.60;99.90
40454;DHT22;26160;51.858;4.398;2023-08-06T14:03:20;15.60;99.90
40454;DHT22;26160;51.858;4.398;2023-08-06T14:05:46;15.50;99.90
40454;DHT22;26160;51.858;4.398;2023-08-06T14:08:12;15.50;99.90
40454;DHT22;26160;51.858;4.398;2023-08-06T14:10:39;15.50;99.90
40454;DHT22;26160;51.858;4.398;2023-08-06T14:13:05;15.70;99.90
40454;DHT22;26160;51.858;4.398;2023-08-06T14:15:31;15.70;99.90
40454;DHT22;26160;51.858;4.398;2023-08-06T14:17:59;15.70;99.90
40454;DHT22;26160;51.858;4.398;2023-08-06T14:20:25;15.80;99.90
40454;DHT22;26160;51.858;4.398;2023-08-06T14:22:51;15.90;99.90
40454;DHT22;26160;51.858;4.398;2023-08-06T14:25:17;16.00;99.90
40454;DHT22;26160;51.858;4.398;2023-08-06T14:27:43;16.10;99.90
40454;DHT22;26160;51.858;4.398;2023-08-06T14:30:10;16.00;99.90
40454;DHT22;26160;51.858;4.398;2023-08-06T14:32:36;16.00;99.90
40454;DHT22;26160;51.858;4.398;2023-08-06T14:35:02;16.00;99.90
40454;DHT22;26160;51.858;4.398;2023-08-06T14:37:28;16.00;99.90
40454;DHT22;26160;51.858;4.398;2023-08-06T14:39:54;16.10;99.90
40454;DHT22;26160;51.858;4.398;2023-08-06T14:42:21;16.20;99.90
40454;DHT22;26160;51.858;4.398;2023-08-06T14:44:47;16.20;99.90
40454;DHT22;26160;51.858;4.398;2023-08-06T14:47:13;16.20;99.90
40454;DHT22;26160;51.858;4.398;2023-08-06T14:49:39;16.10;99.90
40454;DHT22;26160;51.858;4.398;2023-08-06T14:52:06;16.10;99.90
40454;DHT22;26160;51.858;4.398;2023-08-06T14:54:40;15.90;99.90
40454;DHT22;26160;51.858;4.398;2023-08-06T14:57:09;15.80;99.90
40454;DHT22;26160;51.858;4.398;2023-08-06T14:59:36;15.60;99.90
40454;DHT22;26160;51.858;4.398;2023-08-06T15:02:02;15.50;99.90
40454;DHT22;26160;51.858;4.398;2023-08-06T15:04:29;15.40;99.90
40454;DHT22;26160;51.858;4.398;2023-08-06T15:06:55;15.30;99.90
40454;DHT22;26160;51.858;4.398;2023-08-06T15:09:21;15.10;99.90
40454;DHT22;26160;51.858;4.398;2023-08-06T15:11:48;15.10;99.90
40454;DHT22;26160;51.858;4.398;2023-08-06T15:14:14;15.00;99.90
40454;DHT22;26160;51.858;4.398;2023-08-06T15:16:41;14.90;99.90
40454;DHT22;26160;51.858;4.398;2023-08-06T15:19:07;14.80;99.90
40454;DHT22;26160;51.858;4.398;2023-08-06T15:21:33;14.60;99.90
40454;DHT22;26160;51.858;4.398;2023-08-06T15:24:00;14.50;99.90
40454;DHT22;26160;51.858;4.398;2023-08-06T15:26:27;14.40;99.90
40454;DHT22;26160;51.858;4.398;2023-08-06T15:28:53;14.40;99.90
40454;DHT22;26160;51.858;4.398;2023-08-06T15:31:22;14.40;99.90
40454;DHT22;26160;51.858;4.398;2023-08-06T15:33:48;14.40;99.90
40454;DHT22;26160;51.858;4.398;2023-08-06T15:36:14;14.50;99.90
40454;DHT22;26160;51.858;4.398;2023-08-06T15:38:41;14.50;99.90